TAP781 ESSA-LPPT
Flight info
| Callsign | TAP781 |
|---|---|
| Flight time | 4h 11m |
| Altitude | 36000 |
| Route | PETEV N872 ELPAX DCT KULUD Z703 ALS N872 PAM/N0443F370 N872 CIV/N0439F360 DCT MEDIL/N0443F370 DCT KOVIN DCT NIDUV DCT KIHVI UN872 TERPO/N0436F350 UN872 ERIGA UZ218 FUJTI/N0441F370 DCT ATLEN DCT ABUPI DCT XAMAX |
| Aircraft | A320/M-SDE3FGHIRWY/LB1 |
Departure
| Time | 2026-05-07 17:38 |
|---|---|
| Airport | Stockholm-Arlanda Airport (ESSA) |
Arrival
| Time | 2026-05-07 21:50 |
|---|---|
| Airport | Lisbon Humberto Delgado Airport (LPPT) |
| Time | Latitude | Longitude | Altitude | Speed | Heading |
|---|---|---|---|---|---|
| 2026-05-07 16:57 | 59.64436 | 17.92686 | 110 ft | 0 kts | 51° |
| 2026-05-07 17:27 | 59.64432 | 17.92675 | 112 ft | 4 kts | 51° |
| 2026-05-07 17:28 | 59.64415 | 17.92634 | 83 ft | 4 kts | 51° |
| 2026-05-07 17:28 | 59.64398 | 17.92593 | 108 ft | 4 kts | 51° |
| 2026-05-07 17:28 | 59.64381 | 17.92551 | 108 ft | 4 kts | 51° |
| 2026-05-07 17:28 | 59.64365 | 17.92512 | 111 ft | 2 kts | 51° |
| 2026-05-07 17:29 | 59.64364 | 17.92510 | 110 ft | 0 kts | 51° |
| 2026-05-07 17:30 | 59.64366 | 17.92521 | 112 ft | 1 kts | 76° |
| 2026-05-07 17:31 | 59.64356 | 17.92521 | 109 ft | 2 kts | 184° |
| 2026-05-07 17:31 | 59.64328 | 17.92514 | 112 ft | 6 kts | 187° |
| 2026-05-07 17:31 | 59.64282 | 17.92501 | 114 ft | 8 kts | 188° |
| 2026-05-07 17:31 | 59.64229 | 17.92456 | 115 ft | 9 kts | 230° |
| 2026-05-07 17:32 | 59.64243 | 17.92325 | 115 ft | 11 kts | 296° |
| 2026-05-07 17:32 | 59.64289 | 17.92161 | 114 ft | 16 kts | 300° |
| 2026-05-07 17:32 | 59.64359 | 17.91942 | 111 ft | 21 kts | 324° |
| 2026-05-07 17:32 | 59.64510 | 17.91968 | 110 ft | 24 kts | 11° |
| 2026-05-07 17:33 | 59.64676 | 17.92030 | 108 ft | 25 kts | 9° |
| 2026-05-07 17:33 | 59.64849 | 17.92091 | 107 ft | 25 kts | 11° |
| 2026-05-07 17:33 | 59.65022 | 17.92154 | 107 ft | 25 kts | 10° |
| 2026-05-07 17:33 | 59.65188 | 17.92219 | 107 ft | 24 kts | 10° |
| 2026-05-07 17:34 | 59.65352 | 17.92278 | 105 ft | 24 kts | 11° |
| 2026-05-07 17:34 | 59.65522 | 17.92334 | 104 ft | 25 kts | 9° |
| 2026-05-07 17:34 | 59.65700 | 17.92396 | 105 ft | 27 kts | 10° |
| 2026-05-07 17:34 | 59.65884 | 17.92466 | 107 ft | 27 kts | 11° |
| 2026-05-07 17:35 | 59.66073 | 17.92546 | 110 ft | 28 kts | 12° |
| 2026-05-07 17:35 | 59.66259 | 17.92614 | 115 ft | 27 kts | 10° |
| 2026-05-07 17:35 | 59.66443 | 17.92662 | 118 ft | 26 kts | 355° |
| 2026-05-07 17:35 | 59.66536 | 17.92608 | 123 ft | 2 kts | 340° |
| 2026-05-07 17:36 | 59.66538 | 17.92606 | 123 ft | 0 kts | 340° |
| 2026-05-07 17:36 | 59.66546 | 17.92600 | 121 ft | 2 kts | 339° |
| 2026-05-07 17:37 | 59.66568 | 17.92583 | 123 ft | 6 kts | 339° |
| 2026-05-07 17:37 | 59.66614 | 17.92515 | 125 ft | 11 kts | 296° |
| 2026-05-07 17:37 | 59.66612 | 17.92374 | 124 ft | 7 kts | 227° |
| 2026-05-07 17:37 | 59.66541 | 17.92339 | 123 ft | 21 kts | 189° |
| 2026-05-07 17:38 | 59.66147 | 17.92201 | 120 ft | 91 kts | 190° |
| 2026-05-07 17:38 | 59.65322 | 17.91901 | 105 ft | 146 kts | 190° |
| 2026-05-07 17:38 | 59.64217 | 17.91527 | 425 ft | 162 kts | 186° |
| 2026-05-07 17:38 | 59.63115 | 17.91139 | 1166 ft | 161 kts | 189° |
| 2026-05-07 17:39 | 59.61973 | 17.90700 | 1575 ft | 177 kts | 194° |
| 2026-05-07 17:39 | 59.60898 | 17.89258 | 1828 ft | 203 kts | 233° |
| 2026-05-07 17:39 | 59.60166 | 17.86745 | 2146 ft | 225 kts | 239° |
| 2026-05-07 17:39 | 59.59378 | 17.83988 | 2790 ft | 233 kts | 240° |
| 2026-05-07 17:40 | 59.58571 | 17.81191 | 3589 ft | 235 kts | 241° |
| 2026-05-07 17:40 | 59.57772 | 17.78232 | 4082 ft | 254 kts | 243° |
| 2026-05-07 17:40 | 59.56949 | 17.75071 | 4828 ft | 261 kts | 242° |
| 2026-05-07 17:40 | 59.55846 | 17.72195 | 5669 ft | 265 kts | 227° |
| 2026-05-07 17:41 | 59.54591 | 17.69575 | 6505 ft | 268 kts | 228° |
| 2026-05-07 17:41 | 59.53284 | 17.66888 | 7257 ft | 273 kts | 228° |
| 2026-05-07 17:41 | 59.51960 | 17.64181 | 8075 ft | 275 kts | 229° |
| 2026-05-07 17:41 | 59.50625 | 17.61465 | 8910 ft | 276 kts | 229° |
| 2026-05-07 17:42 | 59.49282 | 17.58731 | 9767 ft | 278 kts | 229° |
| 2026-05-07 17:42 | 59.47927 | 17.55971 | 10433 ft | 285 kts | 230° |
| 2026-05-07 17:42 | 59.46515 | 17.53086 | 10630 ft | 308 kts | 230° |
| 2026-05-07 17:42 | 59.44987 | 17.49964 | 11001 ft | 322 kts | 229° |
| 2026-05-07 17:43 | 59.43409 | 17.46757 | 11648 ft | 327 kts | 229° |
| 2026-05-07 17:43 | 59.41810 | 17.43518 | 12354 ft | 330 kts | 229° |
| 2026-05-07 17:43 | 59.40201 | 17.40266 | 13051 ft | 333 kts | 229° |
| 2026-05-07 17:43 | 59.38594 | 17.37025 | 13735 ft | 336 kts | 230° |
| 2026-05-07 17:44 | 59.36950 | 17.33720 | 14355 ft | 339 kts | 230° |
| 2026-05-07 17:44 | 59.35297 | 17.30398 | 14985 ft | 341 kts | 230° |
| 2026-05-07 17:44 | 59.33637 | 17.27065 | 15615 ft | 342 kts | 230° |
| 2026-05-07 17:44 | 59.31967 | 17.23713 | 16250 ft | 344 kts | 230° |
| 2026-05-07 17:45 | 59.30290 | 17.20343 | 16813 ft | 347 kts | 230° |
| 2026-05-07 17:45 | 59.28618 | 17.16988 | 17396 ft | 349 kts | 230° |
| 2026-05-07 17:45 | 59.26912 | 17.13567 | 17994 ft | 352 kts | 230° |
| 2026-05-07 17:45 | 59.25195 | 17.10136 | 18567 ft | 354 kts | 230° |
| 2026-05-07 17:46 | 59.23465 | 17.06685 | 19065 ft | 356 kts | 230° |
| 2026-05-07 17:46 | 59.21723 | 17.03216 | 19565 ft | 358 kts | 230° |
| 2026-05-07 17:46 | 59.19896 | 16.99854 | 20047 ft | 363 kts | 225° |
| 2026-05-07 17:46 | 59.17955 | 16.96681 | 20537 ft | 365 kts | 224° |
| 2026-05-07 17:47 | 59.16023 | 16.93536 | 21003 ft | 368 kts | 224° |
| 2026-05-07 17:47 | 59.14048 | 16.90330 | 21465 ft | 370 kts | 224° |
| 2026-05-07 17:47 | 59.12059 | 16.87114 | 21931 ft | 373 kts | 224° |
| 2026-05-07 17:47 | 59.10059 | 16.83882 | 22390 ft | 375 kts | 224° |
| 2026-05-07 17:48 | 59.08047 | 16.80634 | 22805 ft | 377 kts | 225° |
| 2026-05-07 17:48 | 59.06014 | 16.77352 | 23215 ft | 381 kts | 224° |
| 2026-05-07 17:48 | 59.03964 | 16.74046 | 23629 ft | 383 kts | 224° |
| 2026-05-07 17:48 | 59.01902 | 16.70723 | 23989 ft | 386 kts | 224° |
| 2026-05-07 17:49 | 58.99830 | 16.67385 | 24348 ft | 388 kts | 224° |
| 2026-05-07 17:49 | 58.97744 | 16.64034 | 24707 ft | 390 kts | 224° |
| 2026-05-07 17:49 | 58.95645 | 16.60672 | 25050 ft | 392 kts | 224° |
| 2026-05-07 17:49 | 58.93561 | 16.57351 | 25391 ft | 394 kts | 224° |
| 2026-05-07 17:50 | 58.91435 | 16.53968 | 25726 ft | 396 kts | 224° |
| 2026-05-07 17:50 | 58.89306 | 16.50575 | 26057 ft | 398 kts | 224° |
| 2026-05-07 17:50 | 58.87164 | 16.47156 | 26390 ft | 400 kts | 224° |
| 2026-05-07 17:50 | 58.85011 | 16.43725 | 26718 ft | 402 kts | 224° |
| 2026-05-07 17:51 | 58.82846 | 16.40283 | 26991 ft | 404 kts | 224° |
| 2026-05-07 17:51 | 58.80659 | 16.36816 | 27258 ft | 408 kts | 224° |
| 2026-05-07 17:51 | 58.78456 | 16.33339 | 27556 ft | 410 kts | 224° |
| 2026-05-07 17:51 | 58.76229 | 16.29839 | 27873 ft | 412 kts | 224° |
| 2026-05-07 17:52 | 58.74022 | 16.26372 | 28182 ft | 414 kts | 224° |
| 2026-05-07 17:52 | 58.71784 | 16.22857 | 28491 ft | 416 kts | 224° |
| 2026-05-07 17:52 | 58.69529 | 16.19319 | 28801 ft | 418 kts | 224° |
| 2026-05-07 17:52 | 58.67291 | 16.15810 | 29087 ft | 420 kts | 224° |
| 2026-05-07 17:53 | 58.65019 | 16.12252 | 29361 ft | 422 kts | 224° |
| 2026-05-07 17:53 | 58.62734 | 16.08673 | 29643 ft | 424 kts | 224° |
| 2026-05-07 17:53 | 58.60444 | 16.05094 | 29908 ft | 426 kts | 224° |
| 2026-05-07 17:53 | 58.58135 | 16.01497 | 30118 ft | 428 kts | 224° |
| 2026-05-07 17:54 | 58.55843 | 15.97932 | 30316 ft | 430 kts | 223° |
| 2026-05-07 17:54 | 58.53497 | 15.94291 | 30524 ft | 433 kts | 223° |
| 2026-05-07 17:54 | 58.51170 | 15.90692 | 30772 ft | 433 kts | 223° |
| 2026-05-07 17:54 | 58.48829 | 15.87078 | 31072 ft | 433 kts | 223° |
| 2026-05-07 17:55 | 58.46474 | 15.83449 | 31370 ft | 432 kts | 223° |
| 2026-05-07 17:55 | 58.44130 | 15.79848 | 31659 ft | 432 kts | 223° |
| 2026-05-07 17:55 | 58.41812 | 15.76294 | 31947 ft | 432 kts | 223° |
| 2026-05-07 17:55 | 58.39462 | 15.72691 | 32238 ft | 431 kts | 224° |
| 2026-05-07 17:56 | 58.37119 | 15.69099 | 32527 ft | 431 kts | 223° |
| 2026-05-07 17:56 | 58.35569 | 15.66728 | 32685 ft | 431 kts | 223° |
| 2026-05-07 17:56 | 58.32447 | 15.61963 | 32970 ft | 434 kts | 223° |
| 2026-05-07 17:56 | 58.30879 | 15.59575 | 33125 ft | 434 kts | 223° |
| 2026-05-07 17:57 | 58.27738 | 15.54794 | 33488 ft | 434 kts | 223° |
| 2026-05-07 17:57 | 58.26160 | 15.52395 | 33675 ft | 434 kts | 223° |
| 2026-05-07 17:57 | 58.23783 | 15.48784 | 33957 ft | 434 kts | 223° |
| 2026-05-07 17:57 | 58.21452 | 15.45251 | 34217 ft | 434 kts | 223° |
| 2026-05-07 17:58 | 58.19089 | 15.41679 | 34454 ft | 433 kts | 223° |
| 2026-05-07 17:58 | 58.16712 | 15.38094 | 34706 ft | 433 kts | 223° |
| 2026-05-07 17:58 | 58.14354 | 15.34544 | 34945 ft | 432 kts | 223° |
| 2026-05-07 17:58 | 58.12023 | 15.31040 | 35182 ft | 431 kts | 223° |
| 2026-05-07 17:59 | 58.09669 | 15.27505 | 35389 ft | 431 kts | 222° |
| 2026-05-07 17:59 | 58.07375 | 15.23923 | 35577 ft | 430 kts | 224° |
| 2026-05-07 17:59 | 58.05133 | 15.20164 | 35783 ft | 429 kts | 226° |
| 2026-05-07 17:59 | 58.02929 | 15.16309 | 35996 ft | 428 kts | 226° |
| 2026-05-07 18:00 | 57.98616 | 15.08678 | 36119 ft | 426 kts | 226° |
| 2026-05-07 18:00 | 57.94239 | 15.01135 | 36112 ft | 425 kts | 225° |
| 2026-05-07 18:01 | 57.89823 | 14.93675 | 36111 ft | 425 kts | 225° |
| 2026-05-07 18:01 | 57.85413 | 14.86286 | 36110 ft | 425 kts | 225° |
| 2026-05-07 18:02 | 57.78815 | 14.75214 | 36107 ft | 425 kts | 225° |
| 2026-05-07 18:03 | 57.74393 | 14.67795 | 36102 ft | 425 kts | 225° |
| 2026-05-07 18:03 | 57.69999 | 14.60451 | 36090 ft | 425 kts | 225° |
| 2026-05-07 18:04 | 57.65569 | 14.53095 | 36090 ft | 425 kts | 225° |
| 2026-05-07 18:04 | 57.61161 | 14.45796 | 36071 ft | 426 kts | 224° |
| 2026-05-07 18:05 | 57.56703 | 14.38455 | 36075 ft | 427 kts | 224° |
| 2026-05-07 18:05 | 57.52269 | 14.31168 | 36067 ft | 427 kts | 224° |
| 2026-05-07 18:06 | 57.47795 | 14.23813 | 36078 ft | 427 kts | 224° |
| 2026-05-07 18:06 | 57.43341 | 14.16541 | 36067 ft | 428 kts | 224° |
| 2026-05-07 18:07 | 57.38880 | 14.09266 | 36050 ft | 428 kts | 224° |
| 2026-05-07 18:07 | 57.34393 | 14.01981 | 36065 ft | 429 kts | 224° |
| 2026-05-07 18:08 | 57.29907 | 13.94729 | 36062 ft | 429 kts | 223° |
| 2026-05-07 18:08 | 57.25392 | 13.87478 | 36071 ft | 430 kts | 223° |
| 2026-05-07 18:09 | 57.20878 | 13.80219 | 36078 ft | 430 kts | 223° |
| 2026-05-07 18:09 | 57.16346 | 13.72962 | 36073 ft | 430 kts | 223° |
| 2026-05-07 18:10 | 57.11850 | 13.65790 | 36073 ft | 431 kts | 223° |
| 2026-05-07 18:10 | 57.07309 | 13.58557 | 36086 ft | 431 kts | 223° |
| 2026-05-07 18:11 | 57.02773 | 13.51368 | 36091 ft | 432 kts | 223° |
| 2026-05-07 18:11 | 56.98208 | 13.44168 | 36099 ft | 432 kts | 223° |
| 2026-05-07 18:12 | 56.93636 | 13.36971 | 36090 ft | 432 kts | 223° |
| 2026-05-07 18:12 | 56.89086 | 13.29825 | 36092 ft | 433 kts | 222° |
| 2026-05-07 18:13 | 56.84497 | 13.22647 | 36102 ft | 433 kts | 222° |
| 2026-05-07 18:13 | 56.79926 | 13.15534 | 36106 ft | 434 kts | 222° |
| 2026-05-07 18:14 | 56.75337 | 13.08399 | 36100 ft | 434 kts | 222° |
| 2026-05-07 18:14 | 56.70726 | 13.01247 | 36096 ft | 434 kts | 222° |
| 2026-05-07 18:15 | 56.66114 | 12.94134 | 36090 ft | 434 kts | 221° |
| 2026-05-07 18:15 | 56.61507 | 12.87056 | 36092 ft | 435 kts | 221° |
| 2026-05-07 18:16 | 56.56874 | 12.79963 | 36101 ft | 435 kts | 221° |
| 2026-05-07 18:16 | 56.52250 | 12.72904 | 36105 ft | 435 kts | 221° |
| 2026-05-07 18:17 | 56.47637 | 12.65883 | 36126 ft | 435 kts | 221° |
| 2026-05-07 18:17 | 56.42981 | 12.58810 | 36116 ft | 436 kts | 221° |
| 2026-05-07 18:18 | 56.38342 | 12.51781 | 36122 ft | 436 kts | 221° |
| 2026-05-07 18:18 | 56.33703 | 12.44775 | 36125 ft | 436 kts | 221° |
| 2026-05-07 18:19 | 56.29025 | 12.37758 | 36124 ft | 437 kts | 220° |
| 2026-05-07 18:19 | 56.24366 | 12.30777 | 36124 ft | 437 kts | 221° |
| 2026-05-07 18:20 | 56.19735 | 12.23625 | 36122 ft | 437 kts | 221° |
| 2026-05-07 18:20 | 56.15165 | 12.16510 | 36123 ft | 437 kts | 221° |
| 2026-05-07 18:21 | 56.10567 | 12.09414 | 36128 ft | 438 kts | 221° |
| 2026-05-07 18:21 | 56.05910 | 12.02320 | 36129 ft | 438 kts | 221° |
| 2026-05-07 18:22 | 56.01287 | 11.95295 | 36137 ft | 438 kts | 221° |
| 2026-05-07 18:22 | 55.96871 | 11.87780 | 36132 ft | 437 kts | 229° |
| 2026-05-07 18:23 | 55.93311 | 11.79070 | 36128 ft | 437 kts | 233° |
| 2026-05-07 18:23 | 55.89355 | 11.70788 | 36131 ft | 437 kts | 227° |
| 2026-05-07 18:24 | 55.85224 | 11.62914 | 36131 ft | 438 kts | 228° |
| 2026-05-07 18:24 | 55.81158 | 11.54805 | 36130 ft | 438 kts | 230° |
| 2026-05-07 18:25 | 55.77221 | 11.46604 | 36132 ft | 438 kts | 230° |
| 2026-05-07 18:25 | 55.73261 | 11.38328 | 36124 ft | 438 kts | 230° |
| 2026-05-07 18:26 | 55.69276 | 11.30161 | 36127 ft | 439 kts | 229° |
| 2026-05-07 18:26 | 55.65247 | 11.22088 | 36126 ft | 440 kts | 229° |
| 2026-05-07 18:27 | 55.61183 | 11.13986 | 36127 ft | 440 kts | 229° |
| 2026-05-07 18:27 | 55.57122 | 11.05875 | 36130 ft | 440 kts | 229° |
| 2026-05-07 18:28 | 55.53071 | 10.97821 | 36130 ft | 439 kts | 229° |
| 2026-05-07 18:28 | 55.49008 | 10.89755 | 36137 ft | 440 kts | 229° |
| 2026-05-07 18:29 | 55.44952 | 10.81724 | 36132 ft | 440 kts | 229° |
| 2026-05-07 18:29 | 55.40871 | 10.73684 | 36136 ft | 440 kts | 229° |
| 2026-05-07 18:30 | 55.36796 | 10.65679 | 36133 ft | 440 kts | 229° |
| 2026-05-07 18:30 | 55.32705 | 10.57655 | 36130 ft | 440 kts | 229° |
| 2026-05-07 18:31 | 55.28617 | 10.49688 | 36134 ft | 440 kts | 228° |
| 2026-05-07 18:31 | 55.24527 | 10.41740 | 36131 ft | 441 kts | 228° |
| 2026-05-07 18:32 | 55.20401 | 10.33750 | 36131 ft | 441 kts | 228° |
| 2026-05-07 18:32 | 55.16303 | 10.25817 | 36128 ft | 441 kts | 228° |
| 2026-05-07 18:33 | 55.12168 | 10.17845 | 36134 ft | 441 kts | 228° |
| 2026-05-07 18:33 | 55.08045 | 10.09945 | 36133 ft | 441 kts | 227° |
| 2026-05-07 18:34 | 55.03889 | 10.02004 | 36129 ft | 442 kts | 227° |
| 2026-05-07 18:34 | 54.99748 | 9.94136 | 36133 ft | 442 kts | 227° |
| 2026-05-07 18:35 | 54.95445 | 9.86454 | 36125 ft | 442 kts | 225° |
| 2026-05-07 18:35 | 54.91082 | 9.78972 | 36130 ft | 443 kts | 224° |
| 2026-05-07 18:36 | 54.86672 | 9.71407 | 36130 ft | 443 kts | 224° |
| 2026-05-07 18:36 | 54.82328 | 9.63873 | 36125 ft | 444 kts | 225° |
| 2026-05-07 18:37 | 54.77976 | 9.56315 | 36121 ft | 444 kts | 225° |
| 2026-05-07 18:37 | 54.73589 | 9.48754 | 36124 ft | 444 kts | 224° |
| 2026-05-07 18:38 | 54.69224 | 9.41260 | 36127 ft | 444 kts | 224° |
| 2026-05-07 18:38 | 54.64822 | 9.33725 | 36126 ft | 445 kts | 224° |
| 2026-05-07 18:39 | 54.60413 | 9.26193 | 36119 ft | 445 kts | 224° |
| 2026-05-07 18:39 | 54.56019 | 9.18720 | 36116 ft | 445 kts | 224° |
| 2026-05-07 18:40 | 54.51587 | 9.11214 | 36125 ft | 445 kts | 224° |
| 2026-05-07 18:40 | 54.47183 | 9.03777 | 36124 ft | 445 kts | 224° |
| 2026-05-07 18:41 | 54.42764 | 8.96335 | 36128 ft | 445 kts | 224° |
| 2026-05-07 18:41 | 54.38337 | 8.88898 | 36127 ft | 445 kts | 224° |
| 2026-05-07 18:42 | 54.34644 | 8.82718 | 36132 ft | 444 kts | 224° |
| 2026-05-07 18:42 | 54.30205 | 8.75310 | 36131 ft | 444 kts | 224° |
| 2026-05-07 18:43 | 54.25803 | 8.67965 | 36132 ft | 444 kts | 224° |
| 2026-05-07 18:43 | 54.21365 | 8.60587 | 36132 ft | 444 kts | 223° |
| 2026-05-07 18:44 | 54.16939 | 8.53273 | 36127 ft | 444 kts | 223° |
| 2026-05-07 18:44 | 54.12494 | 8.45956 | 36138 ft | 444 kts | 223° |
| 2026-05-07 18:45 | 54.08030 | 8.38619 | 36134 ft | 444 kts | 223° |
| 2026-05-07 18:45 | 54.03603 | 8.31361 | 36126 ft | 444 kts | 223° |
| 2026-05-07 18:46 | 53.99148 | 8.24072 | 36123 ft | 444 kts | 222° |
| 2026-05-07 18:46 | 53.94695 | 8.16812 | 36127 ft | 443 kts | 223° |
| 2026-05-07 18:47 | 53.90229 | 8.09561 | 36139 ft | 442 kts | 223° |
| 2026-05-07 18:47 | 53.85795 | 8.02401 | 36136 ft | 441 kts | 222° |
| 2026-05-07 18:48 | 53.81365 | 7.95268 | 36139 ft | 440 kts | 223° |
| 2026-05-07 18:48 | 53.76918 | 7.88127 | 36130 ft | 440 kts | 223° |
| 2026-05-07 18:49 | 53.72495 | 7.81019 | 36143 ft | 439 kts | 223° |
| 2026-05-07 18:49 | 53.68072 | 7.73933 | 36141 ft | 437 kts | 223° |
| 2026-05-07 18:50 | 53.63667 | 7.66934 | 36129 ft | 436 kts | 223° |
| 2026-05-07 18:50 | 53.59253 | 7.59931 | 36127 ft | 435 kts | 223° |
| 2026-05-07 18:51 | 53.54875 | 7.52984 | 36127 ft | 434 kts | 223° |
| 2026-05-07 18:51 | 53.50468 | 7.46011 | 36134 ft | 434 kts | 223° |
| 2026-05-07 18:52 | 53.46066 | 7.39084 | 36139 ft | 433 kts | 223° |
| 2026-05-07 18:52 | 53.41701 | 7.32238 | 36125 ft | 432 kts | 223° |
| 2026-05-07 18:53 | 53.37304 | 7.25359 | 36131 ft | 431 kts | 223° |
| 2026-05-07 18:53 | 53.32910 | 7.18507 | 36132 ft | 431 kts | 223° |
| 2026-05-07 18:54 | 53.28519 | 7.11665 | 36132 ft | 430 kts | 223° |
| 2026-05-07 18:54 | 53.24155 | 7.04885 | 36129 ft | 430 kts | 222° |
| 2026-05-07 18:55 | 53.19760 | 6.98084 | 36126 ft | 430 kts | 222° |
| 2026-05-07 18:55 | 53.15362 | 6.91295 | 36125 ft | 430 kts | 222° |
| 2026-05-07 18:56 | 53.10980 | 6.84555 | 36124 ft | 430 kts | 222° |
| 2026-05-07 18:56 | 53.06566 | 6.77800 | 36120 ft | 430 kts | 222° |
| 2026-05-07 18:57 | 53.02183 | 6.71101 | 36124 ft | 430 kts | 222° |
| 2026-05-07 18:57 | 52.97763 | 6.64355 | 36127 ft | 429 kts | 222° |
| 2026-05-07 18:58 | 52.93374 | 6.57682 | 36134 ft | 429 kts | 222° |
| 2026-05-07 18:58 | 52.88949 | 6.50997 | 36130 ft | 429 kts | 222° |
| 2026-05-07 18:59 | 52.84560 | 6.44370 | 36124 ft | 429 kts | 222° |
| 2026-05-07 18:59 | 52.80155 | 6.37724 | 36126 ft | 428 kts | 222° |
| 2026-05-07 19:00 | 52.75749 | 6.31087 | 36123 ft | 427 kts | 222° |
| 2026-05-07 19:00 | 52.71360 | 6.24510 | 36130 ft | 427 kts | 222° |
| 2026-05-07 19:01 | 52.66948 | 6.17924 | 36112 ft | 427 kts | 222° |
| 2026-05-07 19:01 | 52.62559 | 6.11376 | 36119 ft | 427 kts | 222° |
| 2026-05-07 19:02 | 52.58142 | 6.04815 | 36111 ft | 426 kts | 222° |
| 2026-05-07 19:02 | 52.53738 | 5.98296 | 36120 ft | 426 kts | 222° |
| 2026-05-07 19:03 | 52.49342 | 5.91801 | 36118 ft | 425 kts | 222° |
| 2026-05-07 19:03 | 52.44963 | 5.85345 | 36115 ft | 425 kts | 222° |
| 2026-05-07 19:04 | 52.40564 | 5.78872 | 36107 ft | 424 kts | 222° |
| 2026-05-07 19:04 | 52.36176 | 5.72445 | 36096 ft | 424 kts | 222° |
| 2026-05-07 19:05 | 52.31765 | 5.65995 | 36095 ft | 424 kts | 222° |
| 2026-05-07 19:05 | 52.27385 | 5.59620 | 36092 ft | 423 kts | 222° |
| 2026-05-07 19:06 | 52.22974 | 5.53223 | 36096 ft | 423 kts | 222° |
| 2026-05-07 19:06 | 52.16107 | 5.44326 | 36089 ft | 423 kts | 211° |
| 2026-05-07 19:07 | 52.10987 | 5.39524 | 36088 ft | 423 kts | 211° |
| 2026-05-07 19:07 | 52.05898 | 5.34794 | 36091 ft | 423 kts | 211° |
| 2026-05-07 19:08 | 52.00755 | 5.30025 | 36082 ft | 423 kts | 211° |
| 2026-05-07 19:08 | 51.95666 | 5.25316 | 36083 ft | 423 kts | 211° |
| 2026-05-07 19:09 | 51.90539 | 5.20588 | 36078 ft | 423 kts | 211° |
| 2026-05-07 19:09 | 51.85414 | 5.15873 | 36081 ft | 423 kts | 211° |
| 2026-05-07 19:10 | 51.80321 | 5.11185 | 36081 ft | 423 kts | 211° |
| 2026-05-07 19:10 | 51.75204 | 5.06503 | 36078 ft | 423 kts | 211° |
| 2026-05-07 19:11 | 51.70078 | 5.01827 | 36074 ft | 423 kts | 211° |
| 2026-05-07 19:11 | 51.64938 | 4.97149 | 36081 ft | 423 kts | 211° |
| 2026-05-07 19:12 | 51.59836 | 4.92523 | 36213 ft | 423 kts | 211° |
| 2026-05-07 19:12 | 51.57272 | 4.90195 | 36337 ft | 423 kts | 211° |
| 2026-05-07 19:12 | 51.54704 | 4.87868 | 36470 ft | 423 kts | 211° |
| 2026-05-07 19:13 | 51.52131 | 4.85540 | 36595 ft | 423 kts | 211° |
| 2026-05-07 19:13 | 51.49561 | 4.83216 | 36726 ft | 423 kts | 211° |
| 2026-05-07 19:13 | 51.46991 | 4.80895 | 36840 ft | 423 kts | 211° |
| 2026-05-07 19:13 | 51.44422 | 4.78580 | 37016 ft | 423 kts | 211° |
| 2026-05-07 19:14 | 51.39295 | 4.73967 | 37092 ft | 423 kts | 211° |
| 2026-05-07 19:14 | 51.34152 | 4.69357 | 37091 ft | 423 kts | 211° |
| 2026-05-07 19:15 | 51.29046 | 4.64778 | 37082 ft | 423 kts | 211° |
| 2026-05-07 19:15 | 51.23905 | 4.60169 | 37075 ft | 423 kts | 211° |
| 2026-05-07 19:16 | 51.18768 | 4.55571 | 37086 ft | 423 kts | 211° |
| 2026-05-07 19:16 | 51.13660 | 4.50999 | 37086 ft | 423 kts | 211° |
| 2026-05-07 19:17 | 51.08519 | 4.46424 | 37082 ft | 423 kts | 211° |
| 2026-05-07 19:17 | 51.03379 | 4.41861 | 37083 ft | 423 kts | 211° |
| 2026-05-07 19:18 | 50.98236 | 4.37302 | 37081 ft | 423 kts | 211° |
| 2026-05-07 19:18 | 50.93138 | 4.32796 | 37084 ft | 423 kts | 211° |
| 2026-05-07 19:19 | 50.88403 | 4.27340 | 37090 ft | 420 kts | 221° |
| 2026-05-07 19:19 | 50.83888 | 4.21418 | 37087 ft | 421 kts | 221° |
| 2026-05-07 19:20 | 50.79405 | 4.15548 | 37074 ft | 420 kts | 221° |
| 2026-05-07 19:20 | 50.74874 | 4.09627 | 37088 ft | 420 kts | 221° |
| 2026-05-07 19:21 | 50.70399 | 4.03788 | 37089 ft | 420 kts | 221° |
| 2026-05-07 19:21 | 50.65886 | 3.97925 | 37090 ft | 420 kts | 221° |
| 2026-05-07 19:22 | 50.61367 | 3.92069 | 37089 ft | 420 kts | 221° |
| 2026-05-07 19:22 | 50.56849 | 3.86228 | 37085 ft | 420 kts | 221° |
| 2026-05-07 19:23 | 50.52352 | 3.80426 | 37083 ft | 420 kts | 221° |
| 2026-05-07 19:23 | 50.47824 | 3.74602 | 37085 ft | 420 kts | 220° |
| 2026-05-07 19:24 | 50.43322 | 3.68826 | 37089 ft | 420 kts | 220° |
| 2026-05-07 19:24 | 50.38795 | 3.63022 | 37081 ft | 419 kts | 220° |
| 2026-05-07 19:25 | 50.34295 | 3.57264 | 37076 ft | 419 kts | 220° |
| 2026-05-07 19:25 | 50.29772 | 3.51504 | 37078 ft | 419 kts | 220° |
| 2026-05-07 19:26 | 50.25262 | 3.45783 | 37076 ft | 419 kts | 220° |
| 2026-05-07 19:26 | 50.21493 | 3.41004 | 37076 ft | 419 kts | 220° |
| 2026-05-07 19:27 | 50.16944 | 3.35254 | 37074 ft | 419 kts | 220° |
| 2026-05-07 19:27 | 50.12424 | 3.29548 | 37074 ft | 418 kts | 220° |
| 2026-05-07 19:28 | 50.07903 | 3.23858 | 37073 ft | 418 kts | 220° |
| 2026-05-07 19:28 | 50.03382 | 3.18181 | 37077 ft | 418 kts | 220° |
| 2026-05-07 19:29 | 49.98869 | 3.12537 | 37071 ft | 418 kts | 220° |
| 2026-05-07 19:29 | 49.94322 | 3.06873 | 37071 ft | 418 kts | 220° |
| 2026-05-07 19:30 | 49.89785 | 3.01225 | 37068 ft | 417 kts | 220° |
| 2026-05-07 19:30 | 49.85280 | 2.95614 | 37068 ft | 417 kts | 220° |
| 2026-05-07 19:31 | 49.80740 | 2.89980 | 37068 ft | 417 kts | 220° |
| 2026-05-07 19:31 | 49.76218 | 2.84403 | 37068 ft | 417 kts | 220° |
| 2026-05-07 19:32 | 49.71684 | 2.78814 | 37068 ft | 417 kts | 220° |
| 2026-05-07 19:32 | 49.67131 | 2.73212 | 37067 ft | 417 kts | 220° |
| 2026-05-07 19:33 | 49.62609 | 2.67655 | 37068 ft | 417 kts | 220° |
| 2026-05-07 19:33 | 49.58053 | 2.62073 | 37067 ft | 417 kts | 220° |
| 2026-05-07 19:34 | 49.53518 | 2.56537 | 37063 ft | 417 kts | 220° |
| 2026-05-07 19:34 | 49.48951 | 2.50970 | 37053 ft | 417 kts | 220° |
| 2026-05-07 19:35 | 49.44414 | 2.45447 | 37060 ft | 417 kts | 220° |
| 2026-05-07 19:35 | 49.39878 | 2.39950 | 37055 ft | 416 kts | 220° |
| 2026-05-07 19:36 | 49.35345 | 2.34466 | 37059 ft | 416 kts | 219° |
| 2026-05-07 19:36 | 49.30776 | 2.28949 | 37057 ft | 416 kts | 219° |
| 2026-05-07 19:37 | 49.26238 | 2.23485 | 37057 ft | 416 kts | 219° |
| 2026-05-07 19:37 | 49.21681 | 2.18024 | 37057 ft | 416 kts | 219° |
| 2026-05-07 19:38 | 49.17110 | 2.12558 | 37060 ft | 416 kts | 219° |
| 2026-05-07 19:38 | 49.12564 | 2.07115 | 37056 ft | 416 kts | 221° |
| 2026-05-07 19:39 | 49.08796 | 2.00501 | 37056 ft | 413 kts | 240° |
| 2026-05-07 19:39 | 49.06333 | 1.92629 | 37045 ft | 414 kts | 245° |
| 2026-05-07 19:40 | 49.03930 | 1.84625 | 37037 ft | 413 kts | 245° |
| 2026-05-07 19:40 | 49.01526 | 1.76709 | 37037 ft | 413 kts | 245° |
| 2026-05-07 19:41 | 48.99118 | 1.68756 | 37042 ft | 413 kts | 245° |
| 2026-05-07 19:41 | 48.96699 | 1.60811 | 37046 ft | 413 kts | 245° |
| 2026-05-07 19:42 | 48.94290 | 1.52915 | 37050 ft | 413 kts | 245° |
| 2026-05-07 19:42 | 48.91860 | 1.44969 | 37052 ft | 413 kts | 245° |
| 2026-05-07 19:43 | 48.89428 | 1.37062 | 37048 ft | 413 kts | 245° |
| 2026-05-07 19:43 | 48.87001 | 1.29190 | 37050 ft | 413 kts | 244° |
| 2026-05-07 19:44 | 48.84557 | 1.21269 | 37051 ft | 414 kts | 244° |
| 2026-05-07 19:44 | 48.82114 | 1.13383 | 37043 ft | 414 kts | 244° |
| 2026-05-07 19:45 | 48.79642 | 1.05445 | 37042 ft | 414 kts | 244° |
| 2026-05-07 19:45 | 48.77186 | 0.97578 | 37040 ft | 414 kts | 244° |
| 2026-05-07 19:46 | 48.74709 | 0.89675 | 37029 ft | 414 kts | 243° |
| 2026-05-07 19:46 | 48.71775 | 0.82201 | 37025 ft | 414 kts | 238° |
| 2026-05-07 19:47 | 48.68772 | 0.74790 | 37031 ft | 414 kts | 238° |
| 2026-05-07 19:47 | 48.65744 | 0.67361 | 37032 ft | 414 kts | 238° |
| 2026-05-07 19:48 | 48.62725 | 0.59957 | 37032 ft | 413 kts | 238° |
| 2026-05-07 19:48 | 48.59699 | 0.52535 | 37027 ft | 413 kts | 238° |
| 2026-05-07 19:49 | 48.56698 | 0.45185 | 37025 ft | 413 kts | 238° |
| 2026-05-07 19:49 | 48.53678 | 0.37823 | 37023 ft | 413 kts | 238° |
| 2026-05-07 19:50 | 48.50630 | 0.30419 | 37029 ft | 414 kts | 238° |
| 2026-05-07 19:50 | 48.47594 | 0.23059 | 37024 ft | 414 kts | 238° |
| 2026-05-07 19:51 | 48.44553 | 0.15713 | 37026 ft | 414 kts | 238° |
| 2026-05-07 19:51 | 48.41512 | 0.08396 | 37031 ft | 413 kts | 238° |
| 2026-05-07 19:52 | 48.38452 | 0.01044 | 37028 ft | 413 kts | 238° |
| 2026-05-07 19:52 | 48.35379 | -0.06210 | 37027 ft | 414 kts | 236° |
| 2026-05-07 19:53 | 48.31988 | -0.13216 | 37021 ft | 414 kts | 232° |
| 2026-05-07 19:53 | 48.28461 | -0.20073 | 37024 ft | 414 kts | 232° |
| 2026-05-07 19:54 | 48.24985 | -0.26919 | 37024 ft | 414 kts | 233° |
| 2026-05-07 19:54 | 48.21494 | -0.33808 | 37011 ft | 414 kts | 233° |
| 2026-05-07 19:55 | 48.18000 | -0.40644 | 37009 ft | 414 kts | 232° |
| 2026-05-07 19:55 | 48.14472 | -0.47510 | 37008 ft | 414 kts | 232° |
| 2026-05-07 19:56 | 48.10972 | -0.54319 | 37006 ft | 414 kts | 232° |
| 2026-05-07 19:56 | 48.07447 | -0.61179 | 37004 ft | 414 kts | 232° |
| 2026-05-07 19:57 | 48.03935 | -0.67988 | 36999 ft | 414 kts | 232° |
| 2026-05-07 19:57 | 48.00399 | -0.74818 | 36995 ft | 414 kts | 232° |
| 2026-05-07 19:58 | 47.96887 | -0.81582 | 36999 ft | 414 kts | 232° |
| 2026-05-07 19:58 | 47.93346 | -0.88395 | 37006 ft | 415 kts | 232° |
| 2026-05-07 19:59 | 47.89814 | -0.95177 | 37008 ft | 415 kts | 232° |
| 2026-05-07 19:59 | 47.86254 | -1.01995 | 37004 ft | 415 kts | 232° |
| 2026-05-07 20:00 | 47.82720 | -1.08752 | 37014 ft | 415 kts | 232° |
| 2026-05-07 20:00 | 47.79149 | -1.15539 | 36996 ft | 415 kts | 232° |
| 2026-05-07 20:01 | 47.75581 | -1.22298 | 37005 ft | 415 kts | 232° |
| 2026-05-07 20:01 | 47.72039 | -1.29010 | 37003 ft | 415 kts | 232° |
| 2026-05-07 20:02 | 47.68452 | -1.35789 | 37003 ft | 416 kts | 232° |
| 2026-05-07 20:02 | 47.64883 | -1.42519 | 37001 ft | 416 kts | 232° |
| 2026-05-07 20:03 | 47.61313 | -1.49229 | 37001 ft | 416 kts | 232° |
| 2026-05-07 20:03 | 47.57634 | -1.55871 | 36992 ft | 416 kts | 229° |
| 2026-05-07 20:04 | 47.53764 | -1.62186 | 36998 ft | 416 kts | 227° |
| 2026-05-07 20:04 | 47.49828 | -1.68486 | 37002 ft | 416 kts | 228° |
| 2026-05-07 20:05 | 47.45937 | -1.74804 | 36989 ft | 417 kts | 229° |
| 2026-05-07 20:05 | 47.42038 | -1.81211 | 36986 ft | 417 kts | 229° |
| 2026-05-07 20:06 | 47.38164 | -1.87559 | 36998 ft | 417 kts | 229° |
| 2026-05-07 20:06 | 47.34051 | -1.93542 | 37002 ft | 418 kts | 217° |
| 2026-05-07 20:07 | 47.29087 | -1.98104 | 37004 ft | 419 kts | 212° |
| 2026-05-07 20:07 | 47.24088 | -2.02565 | 37000 ft | 419 kts | 213° |
| 2026-05-07 20:08 | 47.19117 | -2.07003 | 37006 ft | 420 kts | 213° |
| 2026-05-07 20:08 | 47.14123 | -2.11445 | 36996 ft | 421 kts | 213° |
| 2026-05-07 20:09 | 47.09079 | -2.15928 | 36980 ft | 422 kts | 213° |
| 2026-05-07 20:10 | 47.01565 | -2.22593 | 36992 ft | 422 kts | 213° |
| 2026-05-07 20:10 | 46.96541 | -2.27037 | 36993 ft | 422 kts | 213° |
| 2026-05-07 20:11 | 46.91530 | -2.31448 | 36999 ft | 422 kts | 212° |
| 2026-05-07 20:11 | 46.86493 | -2.35866 | 36995 ft | 421 kts | 212° |
| 2026-05-07 20:12 | 46.81481 | -2.40270 | 36997 ft | 421 kts | 213° |
| 2026-05-07 20:12 | 46.76469 | -2.44676 | 36994 ft | 422 kts | 213° |
| 2026-05-07 20:13 | 46.72264 | -2.48365 | 37003 ft | 423 kts | 213° |
| 2026-05-07 20:13 | 46.67232 | -2.52759 | 36992 ft | 423 kts | 213° |
| 2026-05-07 20:14 | 46.62159 | -2.57179 | 37000 ft | 423 kts | 213° |
| 2026-05-07 20:14 | 46.57114 | -2.61571 | 37003 ft | 423 kts | 213° |
| 2026-05-07 20:15 | 46.52066 | -2.65943 | 37000 ft | 423 kts | 212° |
| 2026-05-07 20:15 | 46.46989 | -2.70333 | 36999 ft | 423 kts | 212° |
| 2026-05-07 20:16 | 46.41948 | -2.74683 | 36997 ft | 423 kts | 212° |
| 2026-05-07 20:16 | 46.36868 | -2.79064 | 36997 ft | 423 kts | 212° |
| 2026-05-07 20:17 | 46.31821 | -2.83409 | 36991 ft | 424 kts | 213° |
| 2026-05-07 20:17 | 46.26761 | -2.87841 | 36992 ft | 423 kts | 218° |
| 2026-05-07 20:18 | 46.22231 | -2.93252 | 36993 ft | 422 kts | 222° |
| 2026-05-07 20:18 | 46.17763 | -2.98709 | 36991 ft | 422 kts | 222° |
| 2026-05-07 20:19 | 46.13293 | -3.04149 | 36994 ft | 422 kts | 222° |
| 2026-05-07 20:19 | 46.08782 | -3.09625 | 36990 ft | 422 kts | 222° |
| 2026-05-07 20:20 | 46.04314 | -3.15042 | 36991 ft | 422 kts | 222° |
| 2026-05-07 20:20 | 45.99824 | -3.20495 | 36992 ft | 422 kts | 222° |
| 2026-05-07 20:21 | 45.95313 | -3.25948 | 36988 ft | 423 kts | 222° |
| 2026-05-07 20:21 | 45.90798 | -3.31382 | 36985 ft | 423 kts | 222° |
| 2026-05-07 20:22 | 45.86314 | -3.36766 | 36983 ft | 423 kts | 222° |
| 2026-05-07 20:22 | 45.81796 | -3.42187 | 36983 ft | 423 kts | 222° |
| 2026-05-07 20:23 | 45.77302 | -3.47568 | 36977 ft | 422 kts | 222° |
| 2026-05-07 20:23 | 45.72780 | -3.52972 | 36976 ft | 422 kts | 222° |
| 2026-05-07 20:24 | 45.68259 | -3.58380 | 36974 ft | 422 kts | 222° |
| 2026-05-07 20:24 | 45.63770 | -3.63716 | 36972 ft | 422 kts | 222° |
| 2026-05-07 20:25 | 45.59255 | -3.69063 | 36973 ft | 422 kts | 222° |
| 2026-05-07 20:25 | 45.54733 | -3.74423 | 36967 ft | 422 kts | 222° |
| 2026-05-07 20:26 | 45.50242 | -3.79736 | 36965 ft | 422 kts | 222° |
| 2026-05-07 20:26 | 45.45703 | -3.85091 | 36966 ft | 422 kts | 222° |
| 2026-05-07 20:27 | 45.41190 | -3.90408 | 36959 ft | 422 kts | 222° |
| 2026-05-07 20:27 | 45.36652 | -3.95729 | 36960 ft | 422 kts | 222° |
| 2026-05-07 20:28 | 45.32140 | -4.01004 | 36960 ft | 421 kts | 222° |
| 2026-05-07 20:28 | 45.27598 | -4.06317 | 36959 ft | 422 kts | 222° |
| 2026-05-07 20:29 | 45.23093 | -4.11581 | 36961 ft | 421 kts | 222° |
| 2026-05-07 20:29 | 45.18558 | -4.16868 | 36959 ft | 421 kts | 222° |
| 2026-05-07 20:30 | 45.14017 | -4.22138 | 36953 ft | 421 kts | 222° |
| 2026-05-07 20:30 | 45.09469 | -4.27404 | 36952 ft | 421 kts | 222° |
| 2026-05-07 20:31 | 45.04948 | -4.32633 | 36953 ft | 421 kts | 222° |
| 2026-05-07 20:31 | 45.00422 | -4.37862 | 36951 ft | 422 kts | 222° |
| 2026-05-07 20:32 | 44.95860 | -4.43118 | 36946 ft | 421 kts | 222° |
| 2026-05-07 20:32 | 44.91332 | -4.48327 | 36947 ft | 421 kts | 222° |
| 2026-05-07 20:33 | 44.86777 | -4.53546 | 36946 ft | 421 kts | 222° |
| 2026-05-07 20:33 | 44.82255 | -4.58723 | 36942 ft | 421 kts | 223° |
| 2026-05-07 20:34 | 44.77699 | -4.63930 | 36946 ft | 421 kts | 223° |
| 2026-05-07 20:34 | 44.73142 | -4.69121 | 36939 ft | 421 kts | 223° |
| 2026-05-07 20:35 | 44.68587 | -4.74306 | 36942 ft | 421 kts | 223° |
| 2026-05-07 20:35 | 44.64024 | -4.79492 | 36939 ft | 421 kts | 223° |
| 2026-05-07 20:36 | 44.59465 | -4.84662 | 36937 ft | 421 kts | 223° |
| 2026-05-07 20:36 | 44.54899 | -4.89824 | 36934 ft | 421 kts | 223° |
| 2026-05-07 20:37 | 44.50305 | -4.94916 | 36916 ft | 423 kts | 218° |
| 2026-05-07 20:37 | 44.45340 | -4.99298 | 36931 ft | 424 kts | 216° |
| 2026-05-07 20:38 | 44.40339 | -5.03673 | 36931 ft | 424 kts | 216° |
| 2026-05-07 20:38 | 44.35324 | -5.08046 | 36931 ft | 424 kts | 216° |
| 2026-05-07 20:39 | 44.30306 | -5.12413 | 36914 ft | 424 kts | 216° |
| 2026-05-07 20:39 | 44.25319 | -5.16747 | 36926 ft | 424 kts | 216° |
| 2026-05-07 20:40 | 44.20301 | -5.21103 | 36923 ft | 424 kts | 216° |
| 2026-05-07 20:40 | 44.15314 | -5.25421 | 36920 ft | 424 kts | 216° |
| 2026-05-07 20:41 | 44.10288 | -5.29753 | 36903 ft | 424 kts | 216° |
| 2026-05-07 20:41 | 44.05301 | -5.34042 | 36928 ft | 423 kts | 216° |
| 2026-05-07 20:42 | 44.00318 | -5.38326 | 36904 ft | 422 kts | 216° |
| 2026-05-07 20:42 | 43.95326 | -5.42615 | 36929 ft | 422 kts | 216° |
| 2026-05-07 20:43 | 43.90320 | -5.46911 | 36906 ft | 422 kts | 216° |
| 2026-05-07 20:43 | 43.85355 | -5.51163 | 36911 ft | 420 kts | 217° |
| 2026-05-07 20:44 | 43.80370 | -5.55411 | 36904 ft | 420 kts | 216° |
| 2026-05-07 20:44 | 43.75374 | -5.59663 | 36911 ft | 420 kts | 217° |
| 2026-05-07 20:45 | 43.70420 | -5.63875 | 36911 ft | 420 kts | 216° |
| 2026-05-07 20:45 | 43.65449 | -5.68097 | 36915 ft | 417 kts | 217° |
| 2026-05-07 20:46 | 43.60532 | -5.72262 | 36915 ft | 415 kts | 217° |
| 2026-05-07 20:46 | 43.55620 | -5.76402 | 36920 ft | 412 kts | 217° |
| 2026-05-07 20:47 | 43.50718 | -5.80532 | 36920 ft | 411 kts | 217° |
| 2026-05-07 20:47 | 43.45846 | -5.84624 | 36920 ft | 410 kts | 217° |
| 2026-05-07 20:48 | 43.41026 | -5.88681 | 36920 ft | 408 kts | 217° |
| 2026-05-07 20:48 | 43.36182 | -5.92746 | 36921 ft | 407 kts | 217° |
| 2026-05-07 20:49 | 43.31338 | -5.96807 | 36926 ft | 407 kts | 217° |
| 2026-05-07 20:49 | 43.26517 | -6.00843 | 36915 ft | 407 kts | 217° |
| 2026-05-07 20:50 | 43.21684 | -6.04864 | 36932 ft | 404 kts | 217° |
| 2026-05-07 20:50 | 43.16863 | -6.08862 | 36937 ft | 404 kts | 217° |
| 2026-05-07 20:51 | 43.12088 | -6.12826 | 36935 ft | 403 kts | 217° |
| 2026-05-07 20:51 | 43.07313 | -6.16795 | 36937 ft | 403 kts | 217° |
| 2026-05-07 20:52 | 43.02515 | -6.20762 | 36939 ft | 403 kts | 217° |
| 2026-05-07 20:52 | 42.97706 | -6.24732 | 36937 ft | 403 kts | 217° |
| 2026-05-07 20:53 | 42.92940 | -6.28670 | 36937 ft | 403 kts | 217° |
| 2026-05-07 20:53 | 42.88141 | -6.32627 | 36939 ft | 403 kts | 217° |
| 2026-05-07 20:54 | 42.83331 | -6.36572 | 36926 ft | 402 kts | 217° |
| 2026-05-07 20:54 | 42.78554 | -6.40485 | 36934 ft | 403 kts | 217° |
| 2026-05-07 20:55 | 42.73746 | -6.44427 | 36934 ft | 402 kts | 217° |
| 2026-05-07 20:55 | 42.68938 | -6.48358 | 36935 ft | 401 kts | 216° |
| 2026-05-07 20:56 | 42.64188 | -6.52227 | 36934 ft | 399 kts | 216° |
| 2026-05-07 20:56 | 42.59421 | -6.56111 | 36934 ft | 399 kts | 216° |
| 2026-05-07 20:57 | 42.54658 | -6.59987 | 36931 ft | 399 kts | 216° |
| 2026-05-07 20:57 | 42.49921 | -6.63835 | 36927 ft | 399 kts | 216° |
| 2026-05-07 20:58 | 42.45135 | -6.67702 | 36932 ft | 399 kts | 216° |
| 2026-05-07 20:58 | 42.40368 | -6.71550 | 36926 ft | 398 kts | 216° |
| 2026-05-07 20:59 | 42.35647 | -6.75357 | 36929 ft | 396 kts | 216° |
| 2026-05-07 20:59 | 42.30898 | -6.79179 | 36926 ft | 396 kts | 216° |
| 2026-05-07 21:00 | 42.26186 | -6.82972 | 36931 ft | 396 kts | 216° |
| 2026-05-07 21:00 | 42.22240 | -6.86139 | 36932 ft | 393 kts | 216° |
| 2026-05-07 21:01 | 42.17547 | -6.89901 | 36932 ft | 391 kts | 216° |
| 2026-05-07 21:01 | 42.12120 | -6.94243 | 36929 ft | 390 kts | 216° |
| 2026-05-07 21:02 | 42.08237 | -6.97342 | 36928 ft | 389 kts | 216° |
| 2026-05-07 21:02 | 42.03562 | -7.01067 | 36925 ft | 389 kts | 216° |
| 2026-05-07 21:03 | 41.98893 | -7.04790 | 36925 ft | 389 kts | 216° |
| 2026-05-07 21:03 | 41.94262 | -7.08462 | 36922 ft | 386 kts | 215° |
| 2026-05-07 21:04 | 41.89664 | -7.12108 | 36923 ft | 385 kts | 216° |
| 2026-05-07 21:04 | 41.85046 | -7.15771 | 36921 ft | 385 kts | 216° |
| 2026-05-07 21:05 | 41.80423 | -7.19422 | 36922 ft | 385 kts | 215° |
| 2026-05-07 21:05 | 41.75802 | -7.23067 | 36914 ft | 384 kts | 215° |
| 2026-05-07 21:06 | 41.71235 | -7.26647 | 36921 ft | 381 kts | 214° |
| 2026-05-07 21:06 | 41.66650 | -7.30204 | 36923 ft | 380 kts | 214° |
| 2026-05-07 21:07 | 41.62059 | -7.33750 | 36926 ft | 380 kts | 214° |
| 2026-05-07 21:07 | 41.57509 | -7.37279 | 36926 ft | 380 kts | 214° |
| 2026-05-07 21:08 | 41.52920 | -7.40829 | 36909 ft | 379 kts | 214° |
| 2026-05-07 21:08 | 41.48391 | -7.44325 | 36925 ft | 377 kts | 214° |
| 2026-05-07 21:09 | 41.43855 | -7.47832 | 36934 ft | 376 kts | 214° |
| 2026-05-07 21:09 | 41.39312 | -7.51334 | 36934 ft | 376 kts | 214° |
| 2026-05-07 21:10 | 41.34800 | -7.54803 | 36929 ft | 376 kts | 214° |
| 2026-05-07 21:10 | 41.30260 | -7.58282 | 36923 ft | 376 kts | 214° |
| 2026-05-07 21:11 | 41.25709 | -7.61764 | 36941 ft | 376 kts | 214° |
| 2026-05-07 21:11 | 41.18915 | -7.66971 | 36942 ft | 376 kts | 214° |
| 2026-05-07 21:12 | 41.14367 | -7.70439 | 36944 ft | 376 kts | 213° |
| 2026-05-07 21:12 | 41.09854 | -7.73878 | 36946 ft | 376 kts | 213° |
| 2026-05-07 21:13 | 41.05336 | -7.77307 | 36942 ft | 375 kts | 213° |
| 2026-05-07 21:13 | 41.00811 | -7.80741 | 36944 ft | 374 kts | 213° |
| 2026-05-07 21:14 | 40.96291 | -7.84163 | 36949 ft | 374 kts | 213° |
| 2026-05-07 21:14 | 40.91778 | -7.87583 | 36940 ft | 373 kts | 213° |
| 2026-05-07 21:15 | 40.87262 | -7.91008 | 36950 ft | 374 kts | 213° |
| 2026-05-07 21:15 | 40.82771 | -7.94397 | 36954 ft | 373 kts | 213° |
| 2026-05-07 21:16 | 40.78273 | -7.97785 | 36951 ft | 373 kts | 213° |
| 2026-05-07 21:16 | 40.73762 | -8.01178 | 36953 ft | 373 kts | 213° |
| 2026-05-07 21:17 | 40.69244 | -8.04560 | 36957 ft | 373 kts | 213° |
| 2026-05-07 21:17 | 40.64754 | -8.07925 | 36951 ft | 373 kts | 213° |
| 2026-05-07 21:18 | 40.60232 | -8.11320 | 36958 ft | 373 kts | 213° |
| 2026-05-07 21:18 | 40.55711 | -8.14694 | 36956 ft | 373 kts | 213° |
| 2026-05-07 21:19 | 40.51226 | -8.18044 | 36955 ft | 373 kts | 213° |
| 2026-05-07 21:19 | 40.46714 | -8.21405 | 36956 ft | 373 kts | 213° |
| 2026-05-07 21:20 | 40.42189 | -8.24771 | 36953 ft | 373 kts | 213° |
| 2026-05-07 21:20 | 40.37666 | -8.28124 | 36953 ft | 373 kts | 213° |
| 2026-05-07 21:21 | 40.33123 | -8.31500 | 36955 ft | 379 kts | 213° |
| 2026-05-07 21:21 | 40.28514 | -8.34908 | 36965 ft | 379 kts | 212° |
| 2026-05-07 21:22 | 40.23942 | -8.38282 | 36943 ft | 378 kts | 212° |
| 2026-05-07 21:22 | 40.21631 | -8.39991 | 36288 ft | 381 kts | 212° |
| 2026-05-07 21:22 | 40.19319 | -8.41702 | 35566 ft | 382 kts | 212° |
| 2026-05-07 21:23 | 40.16978 | -8.43434 | 34502 ft | 392 kts | 211° |
| 2026-05-07 21:23 | 40.14580 | -8.45204 | 33621 ft | 397 kts | 211° |
| 2026-05-07 21:23 | 40.12205 | -8.46953 | 32873 ft | 397 kts | 211° |
| 2026-05-07 21:23 | 40.09800 | -8.48720 | 32201 ft | 395 kts | 211° |
| 2026-05-07 21:24 | 40.07402 | -8.50474 | 31590 ft | 393 kts | 211° |
| 2026-05-07 21:24 | 40.04991 | -8.52144 | 30994 ft | 392 kts | 204° |
| 2026-05-07 21:24 | 40.02386 | -8.53159 | 30456 ft | 392 kts | 191° |
| 2026-05-07 21:24 | 39.99692 | -8.53369 | 30263 ft | 383 kts | 184° |
| 2026-05-07 21:25 | 39.97123 | -8.53850 | 30014 ft | 366 kts | 203° |
| 2026-05-07 21:25 | 39.94930 | -8.55446 | 29741 ft | 359 kts | 214° |
| 2026-05-07 21:25 | 39.92836 | -8.57211 | 29437 ft | 357 kts | 212° |
| 2026-05-07 21:25 | 39.90743 | -8.58869 | 29180 ft | 356 kts | 211° |
| 2026-05-07 21:26 | 39.88606 | -8.60488 | 28904 ft | 355 kts | 210° |
| 2026-05-07 21:26 | 39.86467 | -8.62073 | 28628 ft | 353 kts | 210° |
| 2026-05-07 21:26 | 39.84328 | -8.63648 | 28365 ft | 352 kts | 210° |
| 2026-05-07 21:26 | 39.82201 | -8.65223 | 28094 ft | 350 kts | 210° |
| 2026-05-07 21:27 | 39.80086 | -8.66802 | 27831 ft | 349 kts | 210° |
| 2026-05-07 21:27 | 39.77983 | -8.68374 | 27563 ft | 348 kts | 210° |
| 2026-05-07 21:27 | 39.75885 | -8.69942 | 27310 ft | 347 kts | 210° |
| 2026-05-07 21:27 | 39.73798 | -8.71502 | 27058 ft | 345 kts | 210° |
| 2026-05-07 21:28 | 39.71741 | -8.73034 | 26823 ft | 344 kts | 210° |
| 2026-05-07 21:28 | 39.69663 | -8.74577 | 26560 ft | 342 kts | 210° |
| 2026-05-07 21:28 | 39.67590 | -8.76117 | 26310 ft | 341 kts | 210° |
| 2026-05-07 21:28 | 39.65530 | -8.77651 | 26062 ft | 340 kts | 210° |
| 2026-05-07 21:29 | 39.63500 | -8.79166 | 25821 ft | 339 kts | 210° |
| 2026-05-07 21:29 | 39.61460 | -8.80692 | 25578 ft | 338 kts | 210° |
| 2026-05-07 21:29 | 39.59416 | -8.82217 | 25339 ft | 337 kts | 210° |
| 2026-05-07 21:29 | 39.57376 | -8.83736 | 25102 ft | 336 kts | 210° |
| 2026-05-07 21:30 | 39.55355 | -8.85238 | 24863 ft | 335 kts | 210° |
| 2026-05-07 21:30 | 39.53344 | -8.86733 | 24630 ft | 334 kts | 210° |
| 2026-05-07 21:30 | 39.51332 | -8.88228 | 24398 ft | 333 kts | 210° |
| 2026-05-07 21:30 | 39.49321 | -8.89720 | 24165 ft | 332 kts | 210° |
| 2026-05-07 21:31 | 39.47318 | -8.91204 | 23958 ft | 331 kts | 210° |
| 2026-05-07 21:31 | 39.45335 | -8.92667 | 23710 ft | 330 kts | 209° |
| 2026-05-07 21:31 | 39.43327 | -8.94151 | 23472 ft | 329 kts | 209° |
| 2026-05-07 21:31 | 39.41357 | -8.95606 | 23206 ft | 328 kts | 209° |
| 2026-05-07 21:32 | 39.39383 | -8.97065 | 22938 ft | 327 kts | 209° |
| 2026-05-07 21:32 | 39.37408 | -8.98529 | 22669 ft | 326 kts | 209° |
| 2026-05-07 21:32 | 39.35433 | -8.99989 | 22397 ft | 324 kts | 209° |
| 2026-05-07 21:32 | 39.33486 | -9.01424 | 22141 ft | 323 kts | 209° |
| 2026-05-07 21:33 | 39.31536 | -9.02860 | 21877 ft | 321 kts | 209° |
| 2026-05-07 21:33 | 39.29621 | -9.04267 | 21627 ft | 320 kts | 209° |
| 2026-05-07 21:33 | 39.27686 | -9.05691 | 21375 ft | 317 kts | 209° |
| 2026-05-07 21:33 | 39.25777 | -9.07098 | 21045 ft | 312 kts | 209° |
| 2026-05-07 21:34 | 39.23898 | -9.08483 | 20664 ft | 309 kts | 208° |
| 2026-05-07 21:34 | 39.22043 | -9.09847 | 20268 ft | 307 kts | 208° |
| 2026-05-07 21:34 | 39.20206 | -9.11194 | 19904 ft | 304 kts | 208° |
| 2026-05-07 21:34 | 39.18377 | -9.12534 | 19519 ft | 302 kts | 208° |
| 2026-05-07 21:35 | 39.16555 | -9.13870 | 19157 ft | 300 kts | 208° |
| 2026-05-07 21:35 | 39.14743 | -9.15199 | 18782 ft | 299 kts | 208° |
| 2026-05-07 21:35 | 39.12931 | -9.16527 | 18414 ft | 297 kts | 208° |
| 2026-05-07 21:35 | 39.11146 | -9.17835 | 18019 ft | 296 kts | 208° |
| 2026-05-07 21:36 | 39.09360 | -9.19141 | 17643 ft | 294 kts | 208° |
| 2026-05-07 21:36 | 39.07584 | -9.20440 | 17282 ft | 291 kts | 208° |
| 2026-05-07 21:36 | 39.05836 | -9.21720 | 16931 ft | 289 kts | 208° |
| 2026-05-07 21:36 | 39.04096 | -9.22994 | 16592 ft | 287 kts | 208° |
| 2026-05-07 21:37 | 39.02370 | -9.24256 | 16240 ft | 285 kts | 207° |
| 2026-05-07 21:37 | 39.00644 | -9.25516 | 15901 ft | 284 kts | 207° |
| 2026-05-07 21:37 | 38.98924 | -9.26770 | 15562 ft | 283 kts | 207° |
| 2026-05-07 21:37 | 38.97228 | -9.28004 | 15226 ft | 282 kts | 207° |
| 2026-05-07 21:38 | 38.95468 | -9.29115 | 14832 ft | 281 kts | 195° |
| 2026-05-07 21:38 | 38.93559 | -9.29640 | 14474 ft | 280 kts | 189° |
| 2026-05-07 21:38 | 38.91641 | -9.30073 | 14150 ft | 279 kts | 189° |
| 2026-05-07 21:38 | 38.89735 | -9.30501 | 13839 ft | 277 kts | 189° |
| 2026-05-07 21:39 | 38.87844 | -9.30935 | 13341 ft | 273 kts | 189° |
| 2026-05-07 21:39 | 38.86003 | -9.31359 | 12678 ft | 272 kts | 189° |
| 2026-05-07 21:39 | 38.84143 | -9.31780 | 12020 ft | 270 kts | 189° |
| 2026-05-07 21:39 | 38.82297 | -9.32186 | 11354 ft | 269 kts | 189° |
| 2026-05-07 21:40 | 38.80450 | -9.32583 | 10716 ft | 267 kts | 189° |
| 2026-05-07 21:40 | 38.78618 | -9.32968 | 10110 ft | 265 kts | 189° |
| 2026-05-07 21:40 | 38.76803 | -9.33338 | 9470 ft | 262 kts | 189° |
| 2026-05-07 21:40 | 38.75025 | -9.33691 | 8787 ft | 261 kts | 189° |
| 2026-05-07 21:41 | 38.73227 | -9.34041 | 8074 ft | 262 kts | 189° |
| 2026-05-07 21:41 | 38.71417 | -9.34389 | 7359 ft | 262 kts | 189° |
| 2026-05-07 21:41 | 38.69607 | -9.34726 | 6718 ft | 261 kts | 189° |
| 2026-05-07 21:41 | 38.67808 | -9.35051 | 6067 ft | 260 kts | 189° |
| 2026-05-07 21:42 | 38.66041 | -9.35362 | 5388 ft | 259 kts | 189° |
| 2026-05-07 21:42 | 38.64264 | -9.35662 | 4902 ft | 251 kts | 189° |
| 2026-05-07 21:42 | 38.62554 | -9.35937 | 4652 ft | 244 kts | 189° |
| 2026-05-07 21:42 | 38.60884 | -9.36145 | 4388 ft | 239 kts | 179° |
| 2026-05-07 21:43 | 38.59283 | -9.35636 | 4136 ft | 239 kts | 153° |
| 2026-05-07 21:43 | 38.58045 | -9.34273 | 3996 ft | 233 kts | 125° |
| 2026-05-07 21:43 | 38.57270 | -9.32519 | 3986 ft | 219 kts | 119° |
| 2026-05-07 21:43 | 38.56694 | -9.30819 | 3992 ft | 205 kts | 105° |
| 2026-05-07 21:44 | 38.56480 | -9.29038 | 3998 ft | 201 kts | 90° |
| 2026-05-07 21:44 | 38.56636 | -9.27277 | 3996 ft | 197 kts | 73° |
| 2026-05-07 21:44 | 38.57180 | -9.25736 | 3980 ft | 183 kts | 53° |
| 2026-05-07 21:44 | 38.58010 | -9.24558 | 3987 ft | 176 kts | 35° |
| 2026-05-07 21:45 | 38.59033 | -9.23773 | 3979 ft | 173 kts | 19° |
| 2026-05-07 21:45 | 38.60152 | -9.23180 | 3865 ft | 173 kts | 20° |
| 2026-05-07 21:45 | 38.60886 | -9.22790 | 3718 ft | 172 kts | 20° |
| 2026-05-07 21:45 | 38.61990 | -9.22204 | 3488 ft | 170 kts | 19° |
| 2026-05-07 21:46 | 38.63431 | -9.21437 | 3191 ft | 169 kts | 20° |
| 2026-05-07 21:46 | 38.64515 | -9.20860 | 2961 ft | 168 kts | 19° |
| 2026-05-07 21:46 | 38.65243 | -9.20473 | 2812 ft | 167 kts | 20° |
| 2026-05-07 21:46 | 38.66305 | -9.19907 | 2578 ft | 167 kts | 20° |
| 2026-05-07 21:47 | 38.67373 | -9.19338 | 2349 ft | 165 kts | 20° |
| 2026-05-07 21:47 | 38.68436 | -9.18771 | 2122 ft | 165 kts | 20° |
| 2026-05-07 21:47 | 38.69497 | -9.18205 | 1898 ft | 164 kts | 20° |
| 2026-05-07 21:47 | 38.70549 | -9.17644 | 1673 ft | 162 kts | 20° |
| 2026-05-07 21:48 | 38.71544 | -9.17113 | 1453 ft | 151 kts | 20° |
| 2026-05-07 21:48 | 38.72478 | -9.16614 | 1268 ft | 140 kts | 20° |
| 2026-05-07 21:48 | 38.73375 | -9.16136 | 1062 ft | 138 kts | 20° |
| 2026-05-07 21:48 | 38.74252 | -9.15667 | 890 ft | 136 kts | 20° |
| 2026-05-07 21:49 | 38.75138 | -9.15193 | 674 ft | 139 kts | 18° |
| 2026-05-07 21:49 | 38.76029 | -9.14717 | 519 ft | 138 kts | 19° |
| 2026-05-07 21:49 | 38.76915 | -9.14243 | 356 ft | 137 kts | 19° |
| 2026-05-07 21:49 | 38.77613 | -9.13870 | 366 ft | 71 kts | 22° |
| 2026-05-07 21:50 | 38.77849 | -9.13744 | 363 ft | 26 kts | 22° |
| 2026-05-07 21:50 | 38.78045 | -9.13638 | 367 ft | 35 kts | 22° |
| 2026-05-07 21:50 | 38.78258 | -9.13500 | 365 ft | 34 kts | 38° |
| 2026-05-07 21:50 | 38.78380 | -9.13322 | 363 ft | 11 kts | 77° |
| 2026-05-07 21:51 | 38.78333 | -9.13258 | 362 ft | 11 kts | 201° |
| 2026-05-07 21:51 | 38.78269 | -9.13294 | 366 ft | 10 kts | 202° |
| 2026-05-07 21:51 | 38.78208 | -9.13325 | 361 ft | 9 kts | 200° |
| 2026-05-07 21:51 | 38.78148 | -9.13354 | 360 ft | 11 kts | 202° |
| 2026-05-07 21:52 | 38.78056 | -9.13403 | 361 ft | 18 kts | 200° |
| 2026-05-07 21:52 | 38.77900 | -9.13382 | 350 ft | 28 kts | 167° |
| 2026-05-07 21:52 | 38.77694 | -9.13328 | 337 ft | 33 kts | 168° |
| 2026-05-07 21:52 | 38.77462 | -9.13291 | 336 ft | 30 kts | 168° |
| 2026-05-07 21:53 | 38.77324 | -9.13256 | 338 ft | 17 kts | 169° |
| 2026-05-07 21:53 | 38.77207 | -9.13227 | 335 ft | 17 kts | 169° |
| 2026-05-07 21:53 | 38.77092 | -9.13196 | 337 ft | 16 kts | 168° |
| 2026-05-07 21:53 | 38.77029 | -9.13178 | 338 ft | 4 kts | 163° |
| 2026-05-07 21:54 | 38.77017 | -9.13145 | 338 ft | 5 kts | 88° |
| 2026-05-07 21:54 | 38.77025 | -9.13102 | 336 ft | 4 kts | 78° |
| 2026-05-07 21:54 | 38.77026 | -9.13096 | 336 ft | 0 kts | 78° |
| 2026-05-07 21:54 | 38.77027 | -9.13090 | 336 ft | 1 kts | 78° |
| 2026-05-07 21:55 | 38.77028 | -9.13089 | 336 ft | 0 kts | 78° |